Time;durP1;ratioP1;P1;durP2;ratioP2;P2;SDS_P1;SDS_P2;PMS_P1;PMS_P2;Temp;Humidity;BMP_temperature;BMP_pressure;BME280_temperature;BME280_humidity;BME280_pressure;Samples;Min_cycle;Max_cycle;Signal;HPM_P1;HPM_P2
2022/08/02 00:00:30;;;;;;;1.17;0.82;;;19.50;99.90;;;;;;4054049;29;20238;-66
2022/08/02 00:02:30;;;;;;;2.00;1.20;;;19.50;99.90;;;;;;4048616;29;20037;-67
2022/08/02 00:04:31;;;;;;;1.50;1.05;;;19.50;99.90;;;;;;4049467;29;20036;-66
2022/08/02 00:06:32;;;;;;;1.67;0.90;;;19.50;99.90;;;;;;4048491;29;20037;-66
2022/08/02 00:08:33;;;;;;;1.45;0.80;;;19.50;99.90;;;;;;4048928;29;20041;-67
2022/08/02 00:10:33;;;;;;;1.88;0.73;;;19.50;99.90;;;;;;4048758;29;20039;-66
2022/08/02 00:12:34;;;;;;;1.45;1.00;;;19.50;99.90;;;;;;4048110;29;20040;-66
2022/08/02 00:14:35;;;;;;;3.55;0.98;;;19.50;99.90;;;;;;4049238;29;20033;-66
2022/08/02 00:16:35;;;;;;;1.77;0.80;;;19.40;99.90;;;;;;4048557;29;20032;-67
2022/08/02 00:18:36;;;;;;;1.98;0.98;;;19.40;99.90;;;;;;4049469;29;20032;-67
2022/08/02 00:20:37;;;;;;;1.33;0.75;;;19.40;99.90;;;;;;4048476;29;20055;-67
2022/08/02 00:22:37;;;;;;;0.93;0.88;;;19.40;99.90;;;;;;4047847;29;20040;-66
2022/08/02 00:24:38;;;;;;;3.72;0.90;;;19.40;99.90;;;;;;4048835;29;20044;-66
2022/08/02 00:26:39;;;;;;;0.85;0.68;;;19.40;99.90;;;;;;4048589;29;20096;-66
2022/08/02 00:28:40;;;;;;;2.55;0.90;;;19.40;99.90;;;;;;4048949;29;20040;-67
2022/08/02 00:30:40;;;;;;;1.17;0.95;;;19.30;99.90;;;;;;4048771;29;20036;-66
2022/08/02 00:32:41;;;;;;;1.45;0.60;;;19.30;99.90;;;;;;4060840;29;20044;-67
2022/08/02 00:34:41;;;;;;;2.60;1.08;;;19.30;99.90;;;;;;4064701;29;20082;-68
2022/08/02 00:36:42;;;;;;;1.33;0.77;;;19.30;99.90;;;;;;4063635;29;20096;-68
2022/08/02 00:38:43;;;;;;;1.23;0.80;;;19.30;99.90;;;;;;4064783;29;20040;-67
2022/08/02 00:40:48;;;;;;;1.50;1.00;;;19.30;99.90;;;;;;4063690;29;20407;-67
2022/08/02 00:43:06;;;;;;;2.40;1.10;;;19.30;99.90;;;;;;4063446;29;20047;-67
2022/08/02 00:45:08;;;;;;;1.10;0.80;;;19.20;99.90;;;;;;4061535;29;20571;-68
2022/08/02 00:47:08;;;;;;;1.83;0.77;;;19.10;99.90;;;;;;4063656;29;20260;-67
2022/08/02 00:49:10;;;;;;;1.42;0.82;;;19.10;99.90;;;;;;4063971;29;20048;-67
2022/08/02 00:51:12;;;;;;;1.20;0.53;;;19.00;99.90;;;;;;4063256;29;20509;-66
2022/08/02 00:53:12;;;;;;;2.55;1.13;;;19.00;99.90;;;;;;4063699;29;20024;-67
2022/08/02 00:55:13;;;;;;;1.98;0.73;;;19.00;99.90;;;;;;4063331;29;20506;-68
2022/08/02 00:57:13;;;;;;;2.42;1.15;;;19.00;99.90;;;;;;4064265;29;20039;-67
2022/08/02 00:59:14;;;;;;;2.17;1.05;;;19.00;99.90;;;;;;4064398;29;20680;-67
2022/08/02 01:01:15;;;;;;;4.63;1.05;;;19.00;99.90;;;;;;4063433;29;20491;-67
2022/08/02 01:03:16;;;;;;;1.73;1.10;;;19.10;99.90;;;;;;4063232;29;20153;-67
2022/08/02 01:05:17;;;;;;;2.17;0.80;;;19.00;99.90;;;;;;4063388;29;20119;-68
2022/08/02 01:07:17;;;;;;;1.45;0.93;;;19.00;99.90;;;;;;4064189;29;20589;-67
2022/08/02 01:09:18;;;;;;;1.00;0.85;;;19.00;99.90;;;;;;4064125;29;20149;-67
2022/08/02 01:11:18;;;;;;;3.50;1.23;;;19.10;99.90;;;;;;4062371;29;20032;-67
2022/08/02 01:13:20;;;;;;;2.25;1.08;;;19.10;99.90;;;;;;4063365;29;20032;-67
2022/08/02 01:15:21;;;;;;;3.33;0.85;;;19.10;99.90;;;;;;4063580;29;20051;-68
2022/08/02 01:17:45;;;;;;;3.28;1.10;;;19.00;99.90;;;;;;4064213;29;20052;-67
2022/08/02 01:20:11;;;;;;;2.22;1.02;;;19.10;99.90;;;;;;4063544;29;20051;-67
2022/08/02 01:22:37;;;;;;;3.45;0.93;;;19.10;99.90;;;;;;4062163;29;20075;-67
2022/08/02 01:25:08;;;;;;;1.95;0.90;;;19.10;99.90;;;;;;4063402;29;20067;-67
2022/08/02 01:27:44;;;;;;;1.38;0.80;;;19.10;99.90;;;;;;4061024;29;20558;-67
2022/08/02 01:29:52;;;;;;;0.80;0.70;;;19.00;99.90;;;;;;4030717;29;20037;-67
2022/08/02 01:32:08;;;;;;;1.52;0.98;;;19.00;99.90;;;;;;4061933;29;20052;-68
2022/08/02 01:34:18;;;;;;;1.95;0.70;;;19.00;99.90;;;;;;4063730;29;20056;-67
2022/08/02 01:36:20;;;;;;;1.35;0.75;;;19.00;99.90;;;;;;4059604;29;20035;-67
2022/08/02 01:38:29;;;;;;;1.05;0.70;;;19.00;99.90;;;;;;4064091;29;20036;-67
2022/08/02 01:40:35;;;;;;;2.40;1.20;;;19.00;99.90;;;;;;4062757;29;20039;-68
2022/08/02 01:42:39;;;;;;;3.30;0.70;;;18.90;99.90;;;;;;4063023;29;20045;-67
2022/08/02 01:44:42;;;;;;;2.50;1.10;;;18.90;99.90;;;;;;4063643;29;20055;-68
2022/08/02 01:46:43;;;;;;;1.45;0.68;;;18.90;99.90;;;;;;4063005;29;20150;-67
2022/08/02 01:48:46;;;;;;;2.00;0.80;;;18.90;99.90;;;;;;4062190;29;20103;-67
2022/08/02 01:50:49;;;;;;;1.42;0.70;;;18.90;99.90;;;;;;4063083;29;20036;-68
2022/08/02 01:52:55;;;;;;;2.10;0.98;;;18.90;99.90;;;;;;4062714;29;20391;-67
2022/08/02 01:55:25;;;;;;;1.77;0.95;;;18.90;99.90;;;;;;4063855;29;20040;-67
2022/08/02 01:57:29;;;;;;;1.75;0.70;;;18.90;99.90;;;;;;4060613;29;20056;-67
2022/08/02 01:59:31;;;;;;;0.70;0.65;;;18.90;99.90;;;;;;4063164;29;20075;-67
2022/08/02 02:01:35;;;;;;;1.40;0.90;;;18.90;99.90;;;;;;4062556;29;20040;-67
2022/08/02 02:03:37;;;;;;;1.15;1.00;;;18.90;99.90;;;;;;4062462;29;20127;-67
2022/08/02 02:05:39;;;;;;;3.33;1.20;;;18.90;99.90;;;;;;4063157;29;20514;-67
2022/08/02 02:07:41;;;;;;;2.65;1.13;;;18.80;99.90;;;;;;4063353;29;20135;-67
2022/08/02 02:09:43;;;;;;;3.50;1.15;;;18.80;99.90;;;;;;4062674;29;20419;-67
2022/08/02 02:11:45;;;;;;;2.45;1.17;;;18.70;99.90;;;;;;4063039;29;20028;-67
2022/08/02 02:13:47;;;;;;;1.50;1.02;;;18.70;99.90;;;;;;4070408;29;20390;-67
2022/08/02 02:15:50;;;;;;;2.03;0.70;;;18.70;99.90;;;;;;4070115;29;20378;-66
2022/08/02 02:17:53;;;;;;;1.67;0.82;;;18.60;99.90;;;;;;4072276;29;20062;-67
2022/08/02 02:19:56;;;;;;;1.88;0.93;;;18.60;99.90;;;;;;4068339;29;20032;-67
2022/08/02 02:21:57;;;;;;;1.65;0.90;;;18.60;99.90;;;;;;4068643;29;20094;-67
2022/08/02 02:23:58;;;;;;;2.95;0.80;;;18.60;99.90;;;;;;4070419;29;20130;-68
2022/08/02 02:26:01;;;;;;;1.17;0.68;;;18.60;99.90;;;;;;4075247;29;20032;-67
2022/08/02 02:28:07;;;;;;;3.35;0.90;;;18.60;99.90;;;;;;4073764;29;20042;-67
2022/08/02 02:30:08;;;;;;;1.60;0.80;;;18.60;99.90;;;;;;4072183;29;20063;-68
2022/08/02 02:32:11;;;;;;;3.20;0.95;;;18.60;99.90;;;;;;4071428;29;20921;-66
2022/08/02 02:37:16;;;;;;;1.25;0.73;;;18.50;99.90;;;;;;4054306;29;20043;-67
2022/08/02 02:39:21;;;;;;;0.82;0.70;;;18.50;99.90;;;;;;4057336;29;20538;-67
2022/08/02 02:41:23;;;;;;;1.42;0.63;;;18.50;99.90;;;;;;4059846;29;20051;-67
2022/08/02 02:43:27;;;;;;;0.95;0.73;;;18.50;99.90;;;;;;4055575;29;20471;-67
2022/08/02 02:45:30;;;;;;;3.53;0.95;;;18.50;99.90;;;;;;4054120;29;20070;-67
2022/08/02 02:47:33;;;;;;;2.05;0.90;;;18.40;99.90;;;;;;4064235;29;20521;-67
2022/08/02 02:49:34;;;;;;;;;;;18.40;99.90;;;;;;4072043;29;20036;-67
2022/08/02 02:51:35;;;;;;;2.65;0.73;;;18.40;99.90;;;;;;4071170;29;19917;-67
2022/08/02 02:53:36;;;;;;;3.38;0.98;;;18.40;99.90;;;;;;4070174;29;20036;-67
2022/08/02 02:55:38;;;;;;;1.00;0.70;;;18.40;99.90;;;;;;4071789;29;20044;-67
2022/08/02 02:57:39;;;;;;;1.20;0.73;;;18.40;99.90;;;;;;4072789;29;20036;-67
2022/08/02 02:59:41;;;;;;;1.38;0.80;;;18.40;99.90;;;;;;4071211;29;20039;-67
2022/08/02 03:01:42;;;;;;;1.30;0.80;;;18.40;99.90;;;;;;4070718;29;20455;-67
2022/08/02 03:03:46;;;;;;;1.83;0.82;;;18.30;99.90;;;;;;4072396;29;20032;-67
2022/08/02 03:05:47;;;;;;;1.15;0.70;;;18.30;99.90;;;;;;4071160;29;20042;-68
2022/08/02 03:07:47;;;;;;;3.35;1.38;;;18.30;99.90;;;;;;4071849;29;20198;-67
2022/08/02 03:09:48;;;;;;;3.55;1.10;;;18.20;99.90;;;;;;4072150;29;20048;-67
2022/08/02 03:11:49;;;;;;;1.88;1.00;;;18.20;99.90;;;;;;4070257;29;20036;-67
2022/08/02 03:13:50;;;;;;;2.80;1.08;;;18.20;99.90;;;;;;4071331;29;20128;-67
2022/08/02 03:15:54;;;;;;;1.98;0.90;;;18.20;99.90;;;;;;4071342;29;20040;-67
2022/08/02 03:17:55;;;;;;;2.50;0.95;;;18.10;99.90;;;;;;4071867;29;20034;-67
2022/08/02 03:19:55;;;;;;;0.80;0.77;;;18.10;99.90;;;;;;4071486;29;20098;-68
2022/08/02 03:21:56;;;;;;;1.00;0.77;;;18.10;99.90;;;;;;4067713;29;20048;-67
2022/08/02 03:23:57;;;;;;;1.08;0.75;;;18.00;99.90;;;;;;4085944;28;20075;-68
2022/08/02 03:25:58;;;;;;;3.03;1.00;;;18.00;99.90;;;;;;4069918;29;20028;-69
2022/08/02 03:27:58;;;;;;;2.78;1.00;;;18.00;99.90;;;;;;4069917;29;20075;-67
2022/08/02 03:29:59;;;;;;;1.60;0.70;;;18.00;99.90;;;;;;4067662;29;20051;-67
2022/08/02 03:31:59;;;;;;;1.73;0.70;;;18.00;99.90;;;;;;4071013;29;20060;-66
2022/08/02 03:34:01;;;;;;;1.23;0.80;;;18.00;99.90;;;;;;4068184;29;20040;-67
2022/08/02 03:36:09;;;;;;;1.02;0.82;;;18.00;99.90;;;;;;4073005;29;20047;-66
2022/08/02 03:38:12;;;;;;;2.15;0.95;;;18.00;99.90;;;;;;4072833;29;20039;-66
2022/08/02 03:40:13;;;;;;;1.05;0.73;;;18.00;99.90;;;;;;4072986;29;20574;-67
2022/08/02 03:42:14;;;;;;;3.33;1.20;;;18.00;99.90;;;;;;4068743;29;20543;-66
2022/08/02 03:44:16;;;;;;;1.23;0.90;;;18.00;99.90;;;;;;4072068;29;20487;-68
2022/08/02 03:46:20;;;;;;;2.47;1.15;;;18.00;99.90;;;;;;4067840;29;20051;-66
2022/08/02 03:48:21;;;;;;;2.40;0.98;;;18.00;99.90;;;;;;4069443;29;20108;-66
2022/08/02 03:50:23;;;;;;;1.08;0.88;;;18.00;99.90;;;;;;4065977;29;20040;-68
2022/08/02 03:52:26;;;;;;;1.25;0.90;;;18.00;99.90;;;;;;4065281;29;20516;-66
2022/08/02 03:54:27;;;;;;;2.28;1.05;;;17.90;99.90;;;;;;4066872;29;20499;-67
2022/08/02 03:56:28;;;;;;;1.77;0.90;;;17.90;99.90;;;;;;4065252;29;20043;-67
2022/08/02 03:58:29;;;;;;;3.08;0.90;;;17.90;99.90;;;;;;4068736;29;20036;-67
2022/08/02 04:00:29;;;;;;;2.50;1.10;;;17.90;99.90;;;;;;4065123;29;21060;-68
2022/08/02 04:02:30;;;;;;;1.45;0.95;;;17.90;99.90;;;;;;4066385;29;20032;-67
2022/08/02 04:04:30;;;;;;;3.42;1.20;;;17.90;99.90;;;;;;4069997;29;20521;-67
2022/08/02 04:06:31;;;;;;;4.07;1.00;;;17.80;99.90;;;;;;4071928;29;20415;-67
2022/08/02 04:08:32;;;;;;;1.20;0.82;;;17.90;99.90;;;;;;4068469;29;20147;-67
2022/08/02 04:11:29;;;;;;;1.48;0.80;;;17.90;99.90;;;;;;4065248;29;21602;-67
2022/08/02 04:12:55;;;;;;;1.63;0.90;;;17.80;99.90;;;;;;4064660;29;20539;-67
2022/08/02 04:14:57;;;;;;;4.72;1.13;;;17.90;99.90;;;;;;4072278;29;20040;-67
2022/08/02 04:17:04;;;;;;;0.70;0.70;;;17.80;99.90;;;;;;4068275;29;20043;-67
2022/08/02 04:19:09;;;;;;;0.90;0.73;;;17.80;99.90;;;;;;4063851;29;20100;-67
2022/08/02 04:21:13;;;;;;;3.67;1.00;;;17.80;99.90;;;;;;4069040;29;20041;-67
2022/08/02 04:23:16;;;;;;;2.05;0.93;;;17.80;99.90;;;;;;4054608;29;20036;-66
2022/08/02 04:25:17;;;;;;;;;;;17.80;99.90;;;;;;4058259;29;20046;-67
2022/08/02 04:27:20;;;;;;;1.20;0.80;;;17.80;99.90;;;;;;4056275;29;22415;-67
2022/08/02 04:29:21;;;;;;;;;;;17.80;99.90;;;;;;4060217;29;20032;-67
2022/08/02 04:31:22;;;;;;;1.25;0.90;;;17.80;99.90;;;;;;4060567;29;20046;-66
2022/08/02 04:33:23;;;;;;;2.47;1.15;;;17.80;99.90;;;;;;4051990;29;20043;-66
2022/08/02 04:35:24;;;;;;;1.60;0.70;;;17.80;99.90;;;;;;4060209;29;20040;-66
2022/08/02 04:37:26;;;;;;;2.15;1.10;;;17.80;99.90;;;;;;4057979;29;20052;-66
2022/08/02 04:39:27;;;;;;;3.78;1.20;;;17.80;99.90;;;;;;4057132;29;20040;-67
2022/08/02 04:41:45;;;;;;;1.88;1.05;;;17.80;99.90;;;;;;4051353;29;20037;-66
2022/08/02 04:43:45;;;;;;;4.70;1.50;;;17.80;99.90;;;;;;4058104;29;20048;-67
2022/08/02 04:45:52;;;;;;;1.60;1.02;;;17.80;99.90;;;;;;4055753;29;20036;-66
2022/08/02 04:47:53;;;;;;;1.55;0.90;;;17.80;99.90;;;;;;4054658;29;20114;-66
2022/08/02 04:49:53;;;;;;;3.17;1.02;;;17.80;99.90;;;;;;4075633;29;20040;-66
2022/08/02 04:51:54;;;;;;;1.00;0.90;;;17.80;99.90;;;;;;4064098;29;20131;-66
2022/08/02 04:53:55;;;;;;;2.40;0.85;;;17.80;99.90;;;;;;4063682;29;20035;-66
2022/08/02 04:55:55;;;;;;;2.33;1.13;;;17.80;99.90;;;;;;4065715;29;20039;-68
2022/08/02 04:57:56;;;;;;;1.73;1.02;;;17.80;99.90;;;;;;4052265;29;20044;-67
2022/08/02 04:59:57;;;;;;;2.13;1.20;;;17.80;99.90;;;;;;4047168;29;20036;-68
2022/08/02 05:01:57;;;;;;;2.78;1.08;;;17.90;99.90;;;;;;4046806;29;20361;-69
2022/08/02 05:03:59;;;;;;;2.40;1.27;;;17.80;99.90;;;;;;4068525;29;20395;-68
2022/08/02 05:05:59;;;;;;;1.50;1.05;;;17.90;99.90;;;;;;4046885;29;20028;-68
2022/08/02 05:08:01;;;;;;;2.58;1.38;;;18.00;99.90;;;;;;4048465;29;20052;-69
2022/08/02 05:10:03;;;;;;;2.17;1.20;;;18.00;99.90;;;;;;4048623;29;20041;-68
2022/08/02 05:12:04;;;;;;;2.55;1.23;;;18.00;99.90;;;;;;4047103;29;20104;-69
2022/08/02 05:14:05;;;;;;;1.85;1.30;;;18.00;99.90;;;;;;4060957;29;20024;-68
2022/08/02 05:16:06;;;;;;;2.40;1.75;;;18.10;99.90;;;;;;4063660;29;20070;-68
2022/08/02 05:18:06;;;;;;;2.80;2.08;;;18.10;99.90;;;;;;4064159;29;20031;-68
2022/08/02 05:20:08;;;;;;;5.03;2.35;;;18.20;99.90;;;;;;4061864;29;20028;-69
2022/08/02 05:22:08;;;;;;;3.83;2.35;;;18.20;99.90;;;;;;4057347;29;20040;-68
2022/08/02 05:24:09;;;;;;;6.32;2.67;;;18.30;99.90;;;;;;4047739;29;20088;-68
2022/08/02 05:26:09;;;;;;;5.00;2.78;;;18.30;99.90;;;;;;4047563;29;20460;-68
2022/08/02 05:28:10;;;;;;;5.20;3.05;;;18.30;99.90;;;;;;4041968;29;20144;-68
2022/08/02 05:30:11;;;;;;;7.03;3.40;;;18.30;99.90;;;;;;4044120;29;20048;-69
2022/08/02 05:32:11;;;;;;;4.55;2.67;;;18.40;99.90;;;;;;4056558;29;20128;-68
2022/08/02 05:34:12;;;;;;;9.43;3.85;;;18.50;99.90;;;;;;4063009;29;20032;-68
2022/08/02 05:36:12;;;;;;;6.10;3.50;;;18.50;99.90;;;;;;4063212;29;20024;-68
2022/08/02 05:38:13;;;;;;;6.45;3.08;;;18.50;99.90;;;;;;4063659;29;20042;-68
2022/08/02 05:40:14;;;;;;;5.43;3.03;;;18.50;99.90;;;;;;4062180;29;20040;-67
2022/08/02 05:42:15;;;;;;;7.22;3.45;;;18.60;99.90;;;;;;4062519;29;20048;-68
2022/08/02 05:44:15;;;;;;;6.07;3.58;;;18.60;99.90;;;;;;4064015;29;20044;-68
2022/08/02 05:46:16;;;;;;;8.38;3.50;;;18.60;99.90;;;;;;4061179;29;20027;-69
2022/08/02 05:48:16;;;;;;;7.30;3.55;;;18.60;99.90;;;;;;4063679;29;20518;-69
2022/08/02 05:50:18;;;;;;;7.93;3.75;;;18.60;99.90;;;;;;4063936;29;20057;-68
2022/08/02 05:52:19;;;;;;;6.47;3.55;;;18.70;99.90;;;;;;4066487;29;20056;-69
2022/08/02 05:54:40;;;;;;;11.20;4.47;;;18.70;99.90;;;;;;4063268;29;20051;-68
2022/08/02 05:56:54;;;;;;;5.80;3.25;;;18.70;99.90;;;;;;4063619;29;20080;-68
2022/08/02 05:59:23;;;;;;;6.97;4.00;;;18.80;99.90;;;;;;4062742;29;20036;-68
2022/08/02 06:01:32;;;;;;;7.45;4.00;;;18.90;99.90;;;;;;4060770;29;20036;-69
2022/08/02 06:03:49;;;;;;;7.75;4.32;;;18.90;99.90;;;;;;4063356;29;20044;-68
2022/08/02 06:05:52;;;;;;;8.07;3.67;;;18.90;99.90;;;;;;4062506;29;20075;-68
2022/08/02 06:07:56;;;;;;;8.10;4.18;;;19.00;99.90;;;;;;4063319;29;20063;-69
2022/08/02 06:09:58;;;;;;;7.68;4.15;;;19.10;99.90;;;;;;4063248;29;20036;-69
2022/08/02 06:12:01;;;;;;;10.10;3.95;;;19.10;99.90;;;;;;4064067;29;20029;-69
2022/08/02 06:14:04;;;;;;;8.07;4.53;;;19.10;99.90;;;;;;4067310;29;20056;-69
2022/08/02 06:16:05;;;;;;;11.52;4.70;;;19.20;99.90;;;;;;4064781;29;20075;-69
2022/08/02 06:18:07;;;;;;;11.15;4.78;;;19.20;99.90;;;;;;4066551;29;20051;-69
2022/08/02 06:20:10;;;;;;;8.23;4.50;;;19.30;99.90;;;;;;4065296;29;20032;-69
2022/08/02 06:22:15;;;;;;;15.40;4.78;;;19.30;99.90;;;;;;4065569;29;20032;-69
2022/08/02 06:24:18;;;;;;;7.10;3.70;;;19.50;99.90;;;;;;4066585;29;20075;-69
2022/08/02 06:26:20;;;;;;;8.43;3.45;;;19.70;99.90;;;;;;4065418;29;20040;-69
2022/08/02 06:28:22;;;;;;;7.30;3.60;;;19.90;99.90;;;;;;4068645;29;20084;-69
2022/08/02 06:30:22;;;;;;;6.13;3.67;;;20.20;99.90;;;;;;4061788;29;20147;-70
2022/08/02 06:32:25;;;;;;;7.57;3.53;;;20.50;99.90;;;;;;4061896;29;20515;-69
2022/08/02 06:34:26;;;;;;;5.57;3.47;;;20.70;99.90;;;;;;4063227;29;20462;-69
2022/08/02 06:36:41;;;;;;;7.07;3.50;;;20.90;99.90;;;;;;4060696;29;20033;-70
2022/08/02 06:39:18;;;;;;;9.05;4.03;;;21.10;99.90;;;;;;4061545;29;20044;-69
2022/08/02 06:41:19;;;;;;;6.45;3.63;;;21.20;99.90;;;;;;4061317;29;20495;-69
2022/08/02 06:43:48;;;;;;;6.40;3.33;;;21.40;99.90;;;;;;4065545;29;20058;-69
2022/08/02 06:45:48;;;;;;;11.32;3.78;;;21.60;99.90;;;;;;4062298;29;20487;-69
2022/08/02 06:47:49;;;;;;;7.20;3.92;;;21.80;99.90;;;;;;4061242;29;20048;-69
2022/08/02 06:49:50;;;;;;;6.88;3.65;;;22.00;99.90;;;;;;4061109;29;20484;-69
2022/08/02 06:51:50;;;;;;;6.75;3.72;;;22.20;99.90;;;;;;4061596;29;20139;-70
2022/08/02 06:53:51;;;;;;;6.95;3.33;;;22.30;99.90;;;;;;4062934;29;20046;-68
2022/08/02 06:55:51;;;;;;;6.28;2.90;;;22.50;99.90;;;;;;4062178;29;20043;-69
2022/08/02 06:57:52;;;;;;;5.57;3.10;;;22.70;99.90;;;;;;4064172;29;20378;-69
2022/08/02 06:59:53;;;;;;;6.28;3.33;;;22.90;99.90;;;;;;4061980;29;20032;-69
2022/08/02 07:01:54;;;;;;;7.63;3.67;;;23.00;99.90;;;;;;4060825;29;20521;-70
2022/08/02 07:03:54;;;;;;;5.47;3.33;;;23.10;99.90;;;;;;4062984;29;20365;-70
2022/08/02 07:05:55;;;;;;;7.22;3.00;;;23.30;99.90;;;;;;4062221;29;20391;-70
2022/08/02 07:07:55;;;;;;;6.68;3.13;;;23.50;99.90;;;;;;4061983;29;20099;-69
2022/08/02 07:09:58;;;;;;;7.38;3.28;;;23.50;99.90;;;;;;4062278;29;20028;-69
2022/08/02 07:11:59;;;;;;;;;;;23.60;99.90;;;;;;4062051;29;20039;-69
2022/08/02 07:13:59;;;;;;;4.88;2.70;;;23.70;99.90;;;;;;4062365;29;19912;-70
2022/08/02 07:16:02;;;;;;;4.93;3.00;;;23.80;99.90;;;;;;4061123;29;20040;-70
2022/08/02 07:18:03;;;;;;;9.15;3.38;;;23.90;99.90;;;;;;4062201;29;20127;-70
2022/08/02 07:20:04;;;;;;;5.53;2.88;;;23.90;99.90;;;;;;4062000;29;20077;-69
2022/08/02 07:22:05;;;;;;;7.15;2.72;;;24.00;99.90;;;;;;4062024;29;20127;-70
2022/08/02 07:24:05;;;;;;;8.63;3.40;;;24.10;99.90;;;;;;4062493;29;20047;-70
2022/08/02 07:26:06;;;;;;;6.05;2.92;;;24.10;99.90;;;;;;4061174;29;20075;-70
2022/08/02 07:28:09;;;;;;;5.88;2.25;;;24.20;99.90;;;;;;4062090;29;20559;-70
2022/08/02 07:30:09;;;;;;;;;;;24.20;99.90;;;;;;4061661;29;20051;-73
2022/08/02 07:32:10;;;;;;;6.78;2.88;;;24.30;99.90;;;;;;4061978;29;20370;-70
2022/08/02 07:34:10;;;;;;;5.30;2.80;;;24.30;99.90;;;;;;4062411;29;20696;-70
2022/08/02 07:36:11;;;;;;;7.13;2.92;;;24.40;99.90;;;;;;4062079;29;20157;-70
2022/08/02 07:38:12;;;;;;;5.75;3.13;;;24.40;99.90;;;;;;4062271;29;20396;-70
2022/08/02 07:40:13;;;;;;;4.80;2.40;;;24.50;99.90;;;;;;4060876;29;20044;-70
2022/08/02 07:42:14;;;;;;;4.88;2.08;;;24.60;99.90;;;;;;4062740;29;20055;-70
2022/08/02 07:44:14;;;;;;;5.72;2.20;;;24.70;99.90;;;;;;4062230;29;20032;-70
2022/08/02 07:46:15;;;;;;;4.53;1.73;;;24.70;99.90;;;;;;4061117;29;20032;-70
2022/08/02 07:48:15;;;;;;;4.50;2.10;;;24.80;99.90;;;;;;4062169;29;20063;-70
2022/08/02 07:50:17;;;;;;;2.42;1.88;;;24.80;99.90;;;;;;4060509;29;20099;-70
2022/08/02 07:52:19;;;;;;;3.63;2.05;;;24.80;99.90;;;;;;4061993;29;20084;-70
2022/08/02 07:54:20;;;;;;;2.87;1.97;;;24.90;99.90;;;;;;4062013;29;20039;-69
2022/08/02 07:56:21;;;;;;;5.35;2.10;;;24.90;99.90;;;;;;4061279;29;20296;-70
2022/08/02 07:58:21;;;;;;;4.55;2.30;;;25.10;99.80;;;;;;4076879;29;20044;-70
2022/08/02 08:00:22;;;;;;;2.55;1.65;;;25.10;99.80;;;;;;4061053;29;21139;-70
2022/08/02 08:02:23;;;;;;;3.97;2.08;;;25.10;99.50;;;;;;4060849;29;20039;-70
2022/08/02 08:04:25;;;;;;;3.17;1.92;;;25.20;99.70;;;;;;4058144;29;20075;-70
2022/08/02 08:06:26;;;;;;;3.53;1.90;;;25.20;99.50;;;;;;4060177;29;20051;-70
2022/08/02 08:08:26;;;;;;;4.53;2.28;;;25.30;99.20;;;;;;4061540;29;20041;-70
2022/08/02 08:10:27;;;;;;;3.85;1.67;;;25.40;99.90;;;;;;4060932;29;20577;-70
2022/08/02 08:12:28;;;;;;;2.70;1.25;;;25.40;99.90;;;;;;4061028;29;20044;-70
2022/08/02 08:14:28;;;;;;;4.25;2.30;;;25.50;99.90;;;;;;4060260;29;20036;-70
2022/08/02 08:16:29;;;;;;;3.67;2.10;;;25.50;99.00;;;;;;4061596;29;20040;-70
2022/08/02 08:18:29;;;;;;;4.45;2.00;;;25.50;98.30;;;;;;4061453;29;20453;-70
2022/08/02 08:20:30;;;;;;;7.60;2.58;;;25.60;99.00;;;;;;4060847;29;20123;-70
2022/08/02 08:22:31;;;;;;;4.38;2.60;;;25.60;98.40;;;;;;4062081;29;20042;-70
2022/08/02 08:24:31;;;;;;;4.13;2.10;;;25.60;98.30;;;;;;4061650;29;20578;-70
2022/08/02 08:26:32;;;;;;;3.42;1.88;;;25.60;98.90;;;;;;4060784;29;20147;-70
2022/08/02 08:28:34;;;;;;;3.03;1.95;;;25.60;99.90;;;;;;4059221;29;20150;-69
2022/08/02 08:30:35;;;;;;;6.30;2.15;;;25.70;99.10;;;;;;4059438;29;20044;-71
2022/08/02 08:32:35;;;;;;;4.90;2.25;;;25.70;99.00;;;;;;4060634;29;20050;-70
2022/08/02 08:34:36;;;;;;;3.15;2.00;;;25.70;98.90;;;;;;4060752;29;20040;-70
2022/08/02 08:36:36;;;;;;;4.47;2.45;;;25.80;98.90;;;;;;4061247;29;20063;-69
2022/08/02 08:38:37;;;;;;;5.70;1.95;;;25.80;98.90;;;;;;4061336;29;20036;-70
2022/08/02 08:40:38;;;;;;;3.58;2.00;;;25.90;98.80;;;;;;4060768;29;20040;-71
2022/08/02 08:42:38;;;;;;;6.72;2.15;;;25.90;99.10;;;;;;4061597;29;20399;-70
2022/08/02 08:44:39;;;;;;;7.72;2.17;;;25.90;99.10;;;;;;4060872;29;20072;-70
2022/08/02 08:46:42;;;;;;;3.92;2.00;;;25.90;98.90;;;;;;4061289;29;20048;-70
2022/08/02 08:48:48;;;;;;;3.60;1.90;;;26.00;98.40;;;;;;4060418;29;20060;-69
2022/08/02 08:50:54;;;;;;;3.47;2.05;;;26.10;99.10;;;;;;4060572;29;20048;-70
2022/08/02 08:53:02;;;;;;;3.85;2.00;;;26.10;99.20;;;;;;4061416;29;20046;-70
2022/08/02 08:55:04;;;;;;;3.67;2.10;;;26.20;99.50;;;;;;4061179;29;20040;-70
2022/08/02 08:57:05;;;;;;;2.50;2.10;;;26.30;98.40;;;;;;4060236;29;20048;-70
2022/08/02 08:59:06;;;;;;;3.05;1.92;;;26.30;97.90;;;;;;4060469;29;20044;-69
2022/08/02 09:01:07;;;;;;;6.72;2.17;;;26.30;97.60;;;;;;4060367;29;20032;-71
2022/08/02 09:03:08;;;;;;;7.65;2.72;;;26.40;97.90;;;;;;4061585;29;20076;-71
2022/08/02 09:05:11;;;;;;;2.25;1.63;;;26.50;97.80;;;;;;4060390;29;20028;-71
2022/08/02 09:07:12;;;;;;;2.88;1.90;;;26.50;97.90;;;;;;4061322;29;20558;-70
2022/08/02 09:09:12;;;;;;;4.55;2.10;;;26.40;96.70;;;;;;4060650;29;20067;-70
2022/08/02 09:11:18;;;;;;;5.18;1.75;;;26.50;97.40;;;;;;4062037;29;20037;-70
2022/08/02 09:13:30;;;;;;;2.08;1.65;;;26.60;97.60;;;;;;4061148;29;20055;-70
2022/08/02 09:15:31;;;;;;;2.97;2.00;;;26.60;98.10;;;;;;4059557;29;20048;-71
2022/08/02 09:17:31;;;;;;;2.78;1.70;;;26.70;97.20;;;;;;4061032;29;20038;-70
2022/08/02 09:19:32;;;;;;;5.22;1.70;;;26.70;96.60;;;;;;4060520;29;20596;-70
2022/08/02 09:21:35;;;;;;;3.03;1.80;;;26.70;98.50;;;;;;4060249;29;20044;-70
2022/08/02 09:23:41;;;;;;;1.90;1.40;;;26.80;96.80;;;;;;4061602;29;20153;-70
2022/08/02 09:25:42;;;;;;;3.65;2.22;;;26.90;97.80;;;;;;4059486;29;20131;-70
2022/08/02 09:27:47;;;;;;;2.33;1.70;;;26.90;97.20;;;;;;4061053;29;20052;-70
2022/08/02 09:29:53;;;;;;;2.10;1.40;;;27.00;97.70;;;;;;4060342;29;20407;-70
2022/08/02 09:32:01;;;;;;;2.70;1.58;;;27.00;97.10;;;;;;4060735;29;20063;-70
2022/08/02 09:34:02;;;;;;;2.38;1.75;;;27.10;97.50;;;;;;4064697;29;20119;-70
2022/08/02 09:36:11;;;;;;;3.08;1.60;;;27.20;97.00;;;;;;4063227;29;20075;-71
2022/08/02 09:38:13;;;;;;;2.95;2.00;;;27.20;97.20;;;;;;4063290;29;20565;-70
2022/08/02 09:40:14;;;;;;;4.65;2.15;;;27.20;97.30;;;;;;4062361;29;20043;-71
2022/08/02 09:42:14;;;;;;;2.38;1.63;;;27.20;96.20;;;;;;4064011;29;20040;-71
2022/08/02 09:44:15;;;;;;;2.63;2.10;;;27.20;97.00;;;;;;4064421;29;20068;-70
2022/08/02 09:46:19;;;;;;;3.50;2.05;;;27.30;97.50;;;;;;4062895;29;20047;-70
2022/08/02 09:48:19;;;;;;;3.33;1.90;;;27.30;96.10;;;;;;4064047;29;20577;-70
2022/08/02 09:50:20;;;;;;;2.70;1.70;;;27.30;96.30;;;;;;4062669;29;20076;-71
2022/08/02 09:52:28;;;;;;;2.25;1.73;;;27.40;96.40;;;;;;4063442;29;20452;-70
2022/08/02 09:54:29;;;;;;;2.08;1.70;;;27.40;96.40;;;;;;4063828;29;20057;-70
2022/08/02 09:56:43;;;;;;;3.63;2.00;;;27.40;96.10;;;;;;4065048;29;20071;-71
2022/08/02 09:58:44;;;;;;;3.20;1.67;;;27.40;95.40;;;;;;4064215;29;20032;-70
2022/08/02 10:00:57;;;;;;;3.05;1.77;;;27.40;95.90;;;;;;4062565;29;20056;-70
2022/08/02 10:03:09;;;;;;;3.35;1.63;;;27.40;95.80;;;;;;4063326;29;20063;-70
2022/08/02 10:05:09;;;;;;;3.55;1.92;;;27.40;95.30;;;;;;4063606;29;20127;-71
2022/08/02 10:07:11;;;;;;;2.35;1.65;;;27.40;96.30;;;;;;4063140;29;20454;-70
2022/08/02 10:09:12;;;;;;;3.88;1.30;;;27.40;95.50;;;;;;4065021;29;20055;-69
2022/08/02 10:11:33;;;;;;;3.55;1.80;;;27.40;96.30;;;;;;4002404;29;20131;-70
2022/08/02 10:13:35;;;;;;;2.55;1.67;;;27.50;96.30;;;;;;4063718;29;20531;-69
2022/08/02 10:15:37;;;;;;;5.75;2.05;;;27.50;96.40;;;;;;4061525;29;20096;-69
2022/08/02 10:17:38;;;;;;;1.90;1.48;;;27.50;96.30;;;;;;4063783;29;20052;-69
2022/08/02 10:19:38;;;;;;;5.32;2.15;;;27.40;95.80;;;;;;4062742;29;20630;-69
2022/08/02 10:21:54;;;;;;;2.80;1.50;;;27.40;96.50;;;;;;4062796;29;20048;-70
2022/08/02 10:24:08;;;;;;;1.73;1.50;;;27.40;95.60;;;;;;4063259;29;20083;-70
2022/08/02 10:26:11;;;;;;;1.60;1.35;;;27.40;96.20;;;;;;4061918;29;20088;-69
2022/08/02 10:28:14;;;;;;;2.33;1.40;;;27.40;95.90;;;;;;4063499;29;20052;-70
2022/08/02 10:30:15;;;;;;;2.00;1.80;;;27.50;96.20;;;;;;4060027;29;20040;-69
2022/08/02 10:32:22;;;;;;;2.67;1.70;;;27.50;95.90;;;;;;4062560;29;20554;-69
2022/08/02 10:34:28;;;;;;;2.88;1.58;;;27.50;94.70;;;;;;4063910;29;20499;-70
2022/08/02 10:36:32;;;;;;;2.08;1.60;;;27.60;94.90;;;;;;4063007;29;20044;-70
2022/08/02 10:38:34;;;;;;;2.85;1.67;;;27.70;94.60;;;;;;4062640;29;20398;-69
2022/08/02 10:40:49;;;;;;;4.35;2.03;;;27.70;94.30;;;;;;4062073;29;20044;-70
2022/08/02 10:42:58;;;;;;;3.28;1.60;;;27.80;94.50;;;;;;4061641;29;20032;-69
2022/08/02 10:45:13;;;;;;;3.00;1.60;;;27.70;93.80;;;;;;4062576;29;20111;-69